SILO ALERT LOG
| Silo ID | Alert Type | Alert Message | Silo Type | Points | Depth (mm) | Strength | Temperature (°C) | Humidity (%) | Height (mm) | Volume (㎥) | Weight (t) | Flag | Time |
|---|---|---|---|---|---|---|---|---|---|---|---|---|---|
| DJSAD16 | Humidity | 습도센서 측정값이 80% 초과 | 평 | 91 | 6541 | 3360 | 3.8 | 80.6 | 1038 | 103.443 | 65.396 | 11 | 2024-01-11 11:39:32.000 |
| DJDJD04 | Humidity | 습도센서 측정값이 80% 초과 | 평 | 281 | 4209 | 4439 | 3.7 | 82.1 | 3470 | 420.512 | 265.848 | 11 | 2024-01-11 11:39:31.000 |
| DJSSD11 | Humidity | 습도센서 측정값이 80% 초과 | 호퍼 | 446 | 7339 | 151 | 9.5 | 80.1 | 3890 | 29.992 | 16.345 | 0 | 2024-01-11 11:39:31.000 |
| DJSSD09 | Temperature | 온도센서 측정값이 0도 미만 | 평 | 120 | 2923 | 3488 | -45.4 | 0 | 4756 | 661.978 | 418.502 | 11 | 2024-01-11 11:39:31.000 |
| DJSAD17 | Humidity | 습도센서 측정값이 80% 초과 | 평 | 447 | 3134 | 4781 | 3.5 | 80.5 | 4445 | 442.715 | 279.884 | 0 | 2024-01-11 11:39:30.000 |
| DJDJD01 | Humidity | 습도센서 측정값이 80% 초과 | 평 | 92 | 6925 | 3871 | 2.5 | 81.3 | 754 | 91.373 | 57.766 | 0 | 2024-01-11 11:39:30.000 |
| DJSAD18 | Humidity | 습도센서 측정값이 80% 초과 | 평 | 115 | 1384 | 5778 | 4.1 | 80.8 | 6195 | 616.989 | 390.06 | 11 | 2024-01-11 11:39:30.000 |
| DJSSD12 | Temperature | 온도센서 상태 이상 | 호퍼 | 0 | 11350 | 0 | -999 | -999 | -120 | 0 | 0 | 31 | 2024-01-11 11:39:24.000 |
| DJHNR12 | Humidity | 습도센서 측정값이 80% 초과 | 호퍼 | 0 | 10500 | 0 | 2.6 | 82.8 | -120 | 0 | 0 | 31 | 2024-01-11 11:39:23.000 |
| DJHNR03 | Temperature | 온도센서 상태 이상 | 호퍼 | 0 | 15500 | 0 | -999 | -999 | -119 | 0 | 0 | 31 | 2024-01-11 11:39:23.000 |
| DJDJD03 | Humidity | 습도센서 측정값이 80% 초과 | 평 | 63 | 4689 | 5185 | 1.7 | 80.8 | 2990 | 362.356 | 229.082 | 0 | 2024-01-11 10:39:40.000 |
| DJSAD01 | Humidity | 습도센서 측정값이 80% 초과 | 평 | 430 | 1482 | 7212 | 0.8 | 88.5 | 7297 | 302.073 | 190.97 | 0 | 2024-01-11 10:39:40.000 |
| DJSAD02 | Humidity | 습도센서 측정값이 80% 초과 | 평 | 383 | 1131 | 4312 | 1.4 | 88 | 7648 | 316.633 | 200.176 | 11 | 2024-01-11 10:39:39.000 |
| DJSAD05 | Humidity | 습도센서 측정값이 80% 초과 | 평 | 471 | 900 | 15078 | 0.8 | 80.2 | 7879 | 326.201 | 206.224 | 11 | 2024-01-11 10:39:39.000 |
| DJSAD03 | Humidity | 습도센서 측정값이 80% 초과 | 평 | 458 | 1285 | 5608 | 1.4 | 84.5 | 7494 | 310.249 | 196.139 | 0 | 2024-01-11 10:39:39.000 |
| DJSAD08 | Humidity | 습도센서 측정값이 80% 초과 | 평 | 0 | 7700 | 3846 | 13 | 81.2 | -120 | -17.075 | 0 | 29 | 2024-01-11 10:39:37.000 |
| DJSAD11 | Humidity | 습도센서 측정값이 80% 초과 | 평 | 328 | 1634 | 3279 | 0.7 | 80.2 | 5945 | 845.995 | 534.838 | 11 | 2024-01-11 10:39:35.000 |
| DJSSD05 | Temperature | 온도센서 측정값이 0도 미만 | 평 | 845 | 2552 | 4879 | -45.4 | 43.6 | 5527 | 769.35 | 486.383 | 0 | 2024-01-11 10:39:33.000 |
| DJSSD01 | Humidity | 습도센서 측정값이 80% 초과 | 평 | 795 | 2574 | 4644 | 4.8 | 84.1 | 5505 | 766.203 | 484.394 | 0 | 2024-01-11 10:39:33.000 |
| DJSSD04 | Temperature | 온도센서 상태 이상 | 평 | 0 | 8200 | 0 | -999 | -999 | -120 | -16.702 | 0 | 31 | 2024-01-11 10:39:33.000 |
[첫 페이지] [9997] [9998] [9999] [10000] 10001 [10002] [10003] [10004] [10005] [마지막 페이지]